Time;durP1;ratioP1;P1;durP2;ratioP2;P2;SDS_P1;SDS_P2;PMS_P1;PMS_P2;Temp;Humidity;BMP_temperature;BMP_pressure;BME280_temperature;BME280_humidity;BME280_pressure;Samples;Min_cycle;Max_cycle;Signal;HPM_P1;HPM_P2
2021/04/13 00:05:06;;;;;;;6.97;3.10;;;;;;;;;;10298922;28;20195;-68
2021/04/13 00:10:10;;;;;;;3.67;2.03;;;;;;;;;;10284376;28;20246;-68
2021/04/13 00:15:13;;;;;;;5.77;2.70;;;;;;;;;;10283044;28;20679;-68
2021/04/13 00:20:17;;;;;;;5.40;2.50;;;;;;;;;;10283688;28;20219;-69
2021/04/13 00:25:25;;;;;;;5.07;2.20;;;;;;;;;;10281759;28;20220;-69
2021/04/13 00:30:29;;;;;;;4.50;2.37;;;;;;;;;;10284243;28;20223;-69
2021/04/13 00:35:33;;;;;;;4.37;2.40;;;;;;;;;;10281187;28;20676;-68
2021/04/13 00:40:37;;;;;;;6.03;2.27;;;;;;;;;;10283181;28;20766;-68
2021/04/13 00:45:40;;;;;;;6.87;2.80;;;;;;;;;;10277639;28;20215;-69
2021/04/13 00:50:43;;;;;;;3.40;1.87;;;;;;;;;;10283988;28;20211;-67
2021/04/13 00:55:48;;;;;;;6.03;2.63;;;;;;;;;;10280533;28;20216;-68
2021/04/13 01:00:51;;;;;;;3.87;1.80;;;;;;;;;;10275983;28;20648;-69
2021/04/13 01:05:56;;;;;;;6.97;3.33;;;;;;;;;;10279878;28;20200;-68
2021/04/13 01:11:02;;;;;;;7.57;3.70;;;;;;;;;;10283693;28;20306;-68
2021/04/13 01:16:05;;;;;;;5.00;2.47;;;;;;;;;;10282867;28;20687;-67
2021/04/13 01:21:13;;;;;;;6.57;3.43;;;;;;;;;;10277446;28;20354;-67
2021/04/13 01:26:16;;;;;;;7.10;3.93;;;;;;;;;;10270482;28;20192;-69
2021/04/13 01:31:42;;;;;;;4.30;2.27;;;;;;;;;;10267556;28;20394;-66
2021/04/13 01:36:44;;;;;;;8.37;3.80;;;;;;;;;;10277604;28;20214;-69
2021/04/13 01:41:58;;;;;;;7.83;4.10;;;;;;;;;;10280431;28;20282;-67
2021/04/13 01:47:00;;;;;;;5.00;2.17;;;;;;;;;;10279908;28;20195;-68
2021/04/13 01:52:02;;;;;;;6.10;2.70;;;;;;;;;;10276512;28;20485;-68
2021/04/13 01:57:11;;;;;;;5.43;2.47;;;;;;;;;;10280524;28;20300;-67
2021/04/13 02:02:15;;;;;;;10.37;5.40;;;;;;;;;;10273847;28;20278;-67
2021/04/13 02:07:30;;;;;;;10.43;5.30;;;;;;;;;;10279433;28;20220;-66
2021/04/13 02:12:37;;;;;;;8.83;4.27;;;;;;;;;;10279350;28;20604;-69
2021/04/13 02:17:40;;;;;;;10.50;5.93;;;;;;;;;;10274275;28;20294;-67
2021/04/13 02:22:44;;;;;;;11.77;5.63;;;;;;;;;;10277878;28;20196;-66
2021/04/13 02:27:47;;;;;;;9.90;5.67;;;;;;;;;;10278097;28;20239;-67
2021/04/13 02:32:50;;;;;;;10.13;5.87;;;;;;;;;;10273598;28;20307;-67
2021/04/13 02:37:53;;;;;;;11.00;6.13;;;;;;;;;;10279336;28;20220;-69
2021/04/13 02:42:57;;;;;;;8.53;4.03;;;;;;;;;;10274066;28;20206;-67
2021/04/13 02:48:02;;;;;;;8.10;4.13;;;;;;;;;;10280626;28;20218;-67
2021/04/13 02:53:06;;;;;;;11.10;5.63;;;;;;;;;;10278317;28;20270;-68
2021/04/13 02:58:10;;;;;;;11.00;5.80;;;;;;;;;;10274246;28;20307;-68
2021/04/13 03:03:12;;;;;;;10.80;6.40;;;;;;;;;;10280165;28;20247;-67
2021/04/13 03:08:14;;;;;;;11.03;5.90;;;;;;;;;;10278821;28;20291;-68
2021/04/13 03:13:19;;;;;;;9.57;4.63;;;;;;;;;;10286760;28;20196;-69
2021/04/13 03:18:22;;;;;;;7.40;3.67;;;;;;;;;;10283659;28;20220;-67
2021/04/13 03:23:26;;;;;;;3.97;1.93;;;;;;;;;;10283500;28;20196;-68
2021/04/13 03:28:30;;;;;;;10.47;5.20;;;;;;;;;;10273167;28;20584;-68
2021/04/13 03:33:33;;;;;;;11.50;6.80;;;;;;;;;;10285543;28;20599;-68
2021/04/13 03:38:36;;;;;;;9.60;5.30;;;;;;;;;;10283196;28;20224;-68
2021/04/13 03:43:39;;;;;;;5.33;2.87;;;;;;;;;;10283332;28;20319;-68
2021/04/13 03:48:42;;;;;;;12.03;6.87;;;;;;;;;;10283796;28;20568;-68
2021/04/13 03:53:46;;;;;;;10.37;5.30;;;;;;;;;;10284260;28;20200;-68
2021/04/13 03:58:49;;;;;;;11.23;5.60;;;;;;;;;;10282408;28;20743;-69
2021/04/13 04:03:51;;;;;;;11.33;6.33;;;;;;;;;;10284152;28;20200;-69
2021/04/13 04:09:10;;;;;;;8.37;4.13;;;;;;;;;;10286881;28;20614;-69
2021/04/13 04:14:14;;;;;;;8.73;3.83;;;;;;;;;;10277097;28;20215;-68
2021/04/13 04:19:17;;;;;;;13.80;7.37;;;;;;;;;;10287667;28;20788;-70
2021/04/13 04:24:21;;;;;;;15.30;7.60;;;;;;;;;;10285900;28;20310;-68
2021/04/13 04:29:35;;;;;;;14.70;8.10;;;;;;;;;;10283789;28;20568;-68
2021/04/13 04:34:55;;;;;;;9.03;4.20;;;;;;;;;;10283681;28;20398;-69
2021/04/13 04:40:10;;;;;;;15.57;8.47;;;;;;;;;;10276804;28;20691;-69
2021/04/13 04:45:15;;;;;;;15.13;8.80;;;;;;;;;;10281798;28;20206;-68
2021/04/13 04:50:17;;;;;;;14.30;8.97;;;;;;;;;;10277728;28;20281;-67
2021/04/13 04:55:19;;;;;;;14.70;8.53;;;;;;;;;;10281877;28;20274;-68
2021/04/13 05:00:22;;;;;;;13.03;8.20;;;;;;;;;;10280046;28;20235;-68
2021/04/13 05:05:23;;;;;;;14.37;8.53;;;;;;;;;;10274693;28;20246;-68
2021/04/13 05:10:25;;;;;;;12.07;5.90;;;;;;;;;;10282693;28;20648;-68
2021/04/13 05:15:27;;;;;;;15.77;8.20;;;;;;;;;;10275615;28;20230;-68
2021/04/13 05:20:29;;;;;;;15.63;8.53;;;;;;;;;;10280351;28;20247;-68
2021/04/13 05:25:30;;;;;;;17.00;9.93;;;;;;;;;;10282108;28;20359;-68
2021/04/13 05:30:33;;;;;;;16.30;9.40;;;;;;;;;;10274785;28;20226;-67
2021/04/13 05:35:35;;;;;;;16.47;9.33;;;;;;;;;;10279170;28;20714;-67
2021/04/13 05:40:38;;;;;;;17.17;10.27;;;;;;;;;;10279362;28;20231;-68
2021/04/13 05:45:42;;;;;;;15.20;8.57;;;;;;;;;;10274399;28;20223;-67
2021/04/13 05:50:45;;;;;;;16.57;10.57;;;;;;;;;;10276880;28;20286;-68
2021/04/13 05:55:47;;;;;;;17.13;10.43;;;;;;;;;;10274743;28;20628;-68
2021/04/13 06:00:51;;;;;;;18.27;10.07;;;;;;;;;;10269609;28;20220;-67
2021/04/13 06:05:54;;;;;;;17.50;10.20;;;;;;;;;;10273880;28;20192;-68
2021/04/13 06:10:57;;;;;;;16.60;10.87;;;;;;;;;;10272682;28;20236;-67
2021/04/13 06:15:59;;;;;;;15.47;9.63;;;;;;;;;;10274324;28;20292;-68
2021/04/13 06:21:01;;;;;;;14.60;9.30;;;;;;;;;;10272232;28;20239;-68
2021/04/13 06:26:03;;;;;;;20.07;10.80;;;;;;;;;;10279834;28;20196;-68
2021/04/13 06:31:05;;;;;;;17.73;10.43;;;;;;;;;;10278179;28;20242;-68
2021/04/13 06:36:08;;;;;;;18.60;11.43;;;;;;;;;;10272935;28;20216;-67
2021/04/13 06:41:30;;;;;;;19.20;11.20;;;;;;;;;;10278520;28;20307;-67
2021/04/13 06:46:39;;;;;;;17.60;11.47;;;;;;;;;;10275649;28;20207;-68
2021/04/13 06:51:47;;;;;;;17.83;11.83;;;;;;;;;;10279395;28;20228;-68
2021/04/13 06:57:03;;;;;;;18.33;11.47;;;;;;;;;;10288022;28;20235;-69
2021/04/13 07:02:11;;;;;;;17.57;11.10;;;;;;;;;;10280462;28;20545;-69
2021/04/13 07:07:15;;;;;;;17.10;12.03;;;;;;;;;;10284410;28;20188;-68
2021/04/13 07:12:18;;;;;;;18.87;11.77;;;;;;;;;;10280867;28;20196;-68
2021/04/13 07:17:25;;;;;;;20.77;13.17;;;;;;;;;;10276699;28;20227;-67
2021/04/13 07:22:30;;;;;;;19.93;12.50;;;;;;;;;;10276796;28;20302;-68
2021/04/13 07:27:34;;;;;;;19.53;12.53;;;;;;;;;;10280945;28;20227;-69
2021/04/13 07:32:37;;;;;;;19.50;13.10;;;;;;;;;;10289272;28;20817;-68
2021/04/13 07:37:40;;;;;;;20.17;13.33;;;;;;;;;;10283486;28;20734;-68
2021/04/13 07:42:45;;;;;;;20.23;13.53;;;;;;;;;;10285793;28;20192;-68
2021/04/13 07:48:06;;;;;;;20.80;14.00;;;;;;;;;;10287142;28;20216;-70
2021/04/13 07:53:15;;;;;;;20.33;14.33;;;;;;;;;;10278746;28;20286;-70
2021/04/13 07:58:21;;;;;;;19.20;13.13;;;;;;;;;;10272922;28;20254;-68
2021/04/13 08:03:24;;;;;;;17.57;11.80;;;;;;;;;;10277006;28;20493;-69
2021/04/13 08:08:28;;;;;;;17.17;11.73;;;;;;;;;;10272974;28;20238;-70
2021/04/13 08:13:31;;;;;;;16.37;11.53;;;;;;;;;;10269899;28;20648;-70
2021/04/13 08:18:37;;;;;;;13.73;10.63;;;;;;;;;;10284051;28;20220;-70
2021/04/13 08:23:40;;;;;;;14.90;10.40;;;;;;;;;;10278059;28;20287;-70
2021/04/13 08:28:48;;;;;;;13.30;10.20;;;;;;;;;;10279470;28;20651;-70
2021/04/13 08:34:00;;;;;;;14.87;10.20;;;;;;;;;;10272023;28;20223;-70
2021/04/13 08:39:04;;;;;;;14.23;9.57;;;;;;;;;;10280477;28;20227;-70
2021/04/13 08:44:31;;;;;;;13.47;9.23;;;;;;;;;;10294219;28;20219;-70
2021/04/13 08:49:38;;;;;;;13.57;8.90;;;;;;;;;;10292862;28;20857;-70
2021/04/13 08:54:42;;;;;;;11.87;8.73;;;;;;;;;;10286899;28;20584;-69
2021/04/13 08:59:45;;;;;;;13.67;8.87;;;;;;;;;;10278756;28;20220;-69
2021/04/13 09:04:59;;;;;;;13.43;8.90;;;;;;;;;;10288483;28;20212;-69
2021/04/13 09:10:14;;;;;;;12.77;8.80;;;;;;;;;;10282000;28;20313;-69
2021/04/13 09:15:21;;;;;;;11.67;8.63;;;;;;;;;;10271683;28;20203;-69
2021/04/13 09:20:26;;;;;;;12.30;8.20;;;;;;;;;;10275248;28;21070;-69
2021/04/13 09:25:33;;;;;;;11.53;8.67;;;;;;;;;;10277453;28;20208;-69
2021/04/13 09:30:36;;;;;;;12.33;7.90;;;;;;;;;;10272138;28;20266;-71
2021/04/13 09:35:58;;;;;;;10.03;6.93;;;;;;;;;;10278691;28;20611;-71
2021/04/13 09:41:06;;;;;;;9.13;6.60;;;;;;;;;;10275966;28;20219;-69
2021/04/13 09:46:23;;;;;;;10.50;7.73;;;;;;;;;;10279620;28;20199;-70
2021/04/13 09:51:27;;;;;;;9.67;7.27;;;;;;;;;;10274914;28;20707;-69
2021/04/13 09:56:51;;;;;;;9.50;6.37;;;;;;;;;;10278238;28;20789;-69
2021/04/13 10:01:57;;;;;;;10.53;7.13;;;;;;;;;;10286709;28;20212;-68
2021/04/13 10:07:04;;;;;;;9.23;6.03;;;;;;;;;;10288847;28;20218;-69
2021/04/13 10:12:19;;;;;;;8.53;5.63;;;;;;;;;;10280043;28;20266;-68
2021/04/13 10:17:30;;;;;;;9.77;6.27;;;;;;;;;;10289312;28;20224;-68
2021/04/13 10:22:52;;;;;;;7.97;5.80;;;;;;;;;;10291614;28;20301;-70
2021/04/13 10:28:14;;;;;;;8.70;5.13;;;;;;;;;;10290475;28;20634;-69
2021/04/13 10:33:25;;;;;;;7.97;5.20;;;;;;;;;;10285498;28;20218;-70
2021/04/13 10:38:41;;;;;;;8.57;4.80;;;;;;;;;;10284608;28;20294;-69
2021/04/13 10:43:57;;;;;;;9.77;5.20;;;;;;;;;;10287330;28;20306;-70
2021/04/13 10:49:21;;;;;;;8.37;5.57;;;;;;;;;;10287743;28;20280;-69
2021/04/13 10:54:43;;;;;;;7.70;5.20;;;;;;;;;;10284089;28;20207;-68
2021/04/13 11:00:02;;;;;;;7.63;4.47;;;;;;;;;;10281834;28;20265;-69
2021/04/13 11:05:19;;;;;;;7.30;4.57;;;;;;;;;;10289896;28;20206;-68
2021/04/13 11:10:29;;;;;;;7.80;4.77;;;;;;;;;;10283862;28;20638;-70
2021/04/13 11:15:42;;;;;;;8.20;4.77;;;;;;;;;;10285681;28;20238;-70
2021/04/13 11:20:56;;;;;;;8.67;4.50;;;;;;;;;;10284476;28;20270;-68
2021/04/13 11:26:16;;;;;;;7.53;4.47;;;;;;;;;;10288204;28;20202;-67
2021/04/13 11:31:35;;;;;;;6.73;3.90;;;;;;;;;;10291117;28;20251;-67
2021/04/13 11:36:44;;;;;;;7.80;4.10;;;;;;;;;;10286519;28;20313;-68
2021/04/13 11:41:52;;;;;;;6.43;3.70;;;;;;;;;;10283845;28;20307;-68
2021/04/13 11:46:55;;;;;;;5.67;3.30;;;;;;;;;;10282787;28;20176;-67
2021/04/13 11:51:59;;;;;;;7.00;4.10;;;;;;;;;;10285306;28;20541;-67
2021/04/13 11:57:03;;;;;;;7.60;4.03;;;;;;;;;;10279520;28;20207;-69
2021/04/13 12:02:17;;;;;;;7.47;3.97;;;;;;;;;;10282220;28;20616;-69
2021/04/13 12:07:37;;;;;;;6.37;3.83;;;;;;;;;;10287392;28;20196;-68
2021/04/13 12:12:47;;;;;;;5.23;3.43;;;;;;;;;;10278896;28;20620;-72
2021/04/13 12:17:50;;;;;;;6.13;3.57;;;;;;;;;;10272825;28;20216;-70
2021/04/13 12:22:53;;;;;;;6.27;3.50;;;;;;;;;;10282008;28;20204;-73
2021/04/13 12:28:05;;;;;;;6.70;3.50;;;;;;;;;;10286155;28;20216;-71
2021/04/13 12:33:07;;;;;;;7.40;3.70;;;;;;;;;;10281006;28;20627;-70
2021/04/13 12:38:24;;;;;;;7.30;3.83;;;;;;;;;;10263236;28;20289;-73
2021/04/13 12:43:29;;;;;;;6.27;3.20;;;;;;;;;;10279389;28;20856;-71
2021/04/13 12:48:44;;;;;;;5.33;3.00;;;;;;;;;;10277070;28;20290;-68
2021/04/13 12:53:46;;;;;;;5.63;3.20;;;;;;;;;;10273908;28;20625;-71
2021/04/13 12:58:49;;;;;;;6.00;3.03;;;;;;;;;;10271584;28;20315;-72
2021/04/13 13:03:50;;;;;;;6.07;3.23;;;;;;;;;;10276425;28;20606;-71
2021/04/13 13:08:55;;;;;;;7.73;3.80;;;;;;;;;;10280807;28;20596;-72
2021/04/13 13:14:01;;;;;;;7.03;3.93;;;;;;;;;;10274582;28;20275;-73
2021/04/13 13:19:25;;;;;;;6.07;3.93;;;;;;;;;;10265779;28;20310;-70
2021/04/13 13:24:28;;;;;;;8.07;3.73;;;;;;;;;;10283294;28;20283;-70
2021/04/13 13:29:30;;;;;;;8.13;4.10;;;;;;;;;;10274964;28;20228;-71
2021/04/13 13:34:32;;;;;;;6.37;4.07;;;;;;;;;;10277251;28;20617;-67
2021/04/13 13:39:34;;;;;;;6.30;3.60;;;;;;;;;;10278697;28;20266;-71
2021/04/13 13:44:40;;;;;;;7.50;4.10;;;;;;;;;;10287470;28;20678;-72
2021/04/13 13:49:43;;;;;;;6.90;4.07;;;;;;;;;;10271502;28;20547;-71
2021/04/13 13:54:44;;;;;;;8.30;4.30;;;;;;;;;;10272410;28;20255;-70
2021/04/13 13:59:48;;;;;;;4.77;2.40;;;;;;;;;;10269258;28;20282;-71
2021/04/13 14:04:50;;;;;;;7.13;4.37;;;;;;;;;;10278662;28;20283;-71
2021/04/13 14:10:07;;;;;;;8.03;4.90;;;;;;;;;;10280774;28;20592;-70
2021/04/13 14:15:14;;;;;;;8.00;4.70;;;;;;;;;;10268551;28;20212;-71
2021/04/13 14:20:16;;;;;;;7.20;4.40;;;;;;;;;;10273060;28;20243;-68
2021/04/13 14:25:22;;;;;;;6.33;3.77;;;;;;;;;;10277498;28;20293;-71
2021/04/13 14:30:26;;;;;;;7.37;4.27;;;;;;;;;;10277973;28;20671;-71
2021/04/13 14:35:29;;;;;;;8.13;4.53;;;;;;;;;;10278223;28;20538;-70
2021/04/13 14:40:32;;;;;;;7.63;4.17;;;;;;;;;;10278001;28;20551;-70
2021/04/13 14:45:34;;;;;;;7.33;4.43;;;;;;;;;;10270437;28;20200;-70
2021/04/13 14:50:37;;;;;;;6.53;4.03;;;;;;;;;;10269711;28;20220;-70
2021/04/13 14:55:40;;;;;;;8.40;4.60;;;;;;;;;;10273555;28;20271;-70
2021/04/13 15:00:43;;;;;;;7.20;4.00;;;;;;;;;;10276245;28;20301;-71
2021/04/13 15:05:46;;;;;;;6.97;4.23;;;;;;;;;;10281238;28;20200;-71
2021/04/13 15:10:48;;;;;;;8.13;4.63;;;;;;;;;;10277867;28;20239;-71
2021/04/13 15:15:50;;;;;;;7.63;4.20;;;;;;;;;;10286343;28;20212;-70
2021/04/13 15:20:53;;;;;;;9.10;4.83;;;;;;;;;;10284019;28;20363;-71
2021/04/13 15:25:55;;;;;;;8.27;4.77;;;;;;;;;;10290011;28;20656;-71
2021/04/13 15:30:57;;;;;;;7.47;4.23;;;;;;;;;;10279164;28;20402;-70
2021/04/13 15:36:01;;;;;;;8.40;5.50;;;;;;;;;;10284908;28;20342;-72
2021/04/13 15:41:05;;;;;;;9.00;5.60;;;;;;;;;;10285585;28;20230;-71
2021/04/13 15:46:15;;;;;;;9.60;6.20;;;;;;;;;;10268966;28;20275;-70
2021/04/13 15:51:18;;;;;;;9.80;5.73;;;;;;;;;;10280662;28;20251;-69
2021/04/13 15:56:22;;;;;;;9.00;4.93;;;;;;;;;;10275797;28;20219;-71
2021/04/13 16:01:24;;;;;;;10.10;5.27;;;;;;;;;;10281974;28;20232;-71
2021/04/13 16:06:29;;;;;;;9.00;5.20;;;;;;;;;;10282743;28;20218;-71
2021/04/13 16:11:31;;;;;;;8.40;5.03;;;;;;;;;;10278620;28;20223;-73
2021/04/13 16:16:34;;;;;;;8.80;4.90;;;;;;;;;;10276202;28;20222;-70
2021/04/13 16:21:36;;;;;;;8.60;5.00;;;;;;;;;;10284751;28;20655;-71
2021/04/13 16:26:41;;;;;;;9.63;5.23;;;;;;;;;;10287688;28;20199;-71
2021/04/13 16:31:46;;;;;;;13.10;6.80;;;;;;;;;;10281605;28;20231;-72
2021/04/13 16:36:51;;;;;;;11.40;6.07;;;;;;;;;;10281279;28;20291;-71
2021/04/13 16:41:53;;;;;;;9.10;5.33;;;;;;;;;;10283653;28;20215;-72
2021/04/13 16:46:57;;;;;;;9.47;6.03;;;;;;;;;;10281326;28;20200;-71
2021/04/13 16:52:02;;;;;;;9.40;5.67;;;;;;;;;;10281600;28;20425;-71
2021/04/13 16:57:04;;;;;;;11.13;6.07;;;;;;;;;;10283019;28;20571;-69
2021/04/13 17:02:11;;;;;;;10.90;6.20;;;;;;;;;;10284889;28;20203;-72
2021/04/13 17:07:17;;;;;;;8.57;5.03;;;;;;;;;;10271472;28;20270;-72
2021/04/13 17:12:19;;;;;;;8.57;5.00;;;;;;;;;;10291086;28;20203;-72
2021/04/13 17:17:31;;;;;;;10.57;5.83;;;;;;;;;;10280779;28;20220;-70
2021/04/13 17:22:33;;;;;;;10.90;5.93;;;;;;;;;;10276962;28;20275;-71
2021/04/13 17:27:36;;;;;;;11.60;5.67;;;;;;;;;;10276703;28;21478;-72
2021/04/13 17:32:41;;;;;;;10.37;5.50;;;;;;;;;;10275508;28;20287;-72
2021/04/13 17:37:45;;;;;;;10.50;6.20;;;;;;;;;;10280056;28;20350;-70
2021/04/13 17:42:49;;;;;;;10.53;6.03;;;;;;;;;;10278850;28;20191;-70
2021/04/13 17:47:55;;;;;;;11.20;5.40;;;;;;;;;;10277046;28;20216;-71
2021/04/13 17:52:59;;;;;;;10.17;5.40;;;;;;;;;;10275008;28;20200;-69
2021/04/13 17:58:01;;;;;;;10.90;5.47;;;;;;;;;;10278040;28;20216;-70
2021/04/13 18:03:07;;;;;;;11.00;5.53;;;;;;;;;;10277532;28;20207;-70
2021/04/13 18:08:12;;;;;;;12.57;5.57;;;;;;;;;;10272342;28;20276;-70
2021/04/13 18:13:18;;;;;;;10.17;5.70;;;;;;;;;;10275019;28;20690;-70
2021/04/13 18:18:22;;;;;;;13.80;6.70;;;;;;;;;;10275352;28;20220;-71
2021/04/13 18:23:26;;;;;;;12.33;6.37;;;;;;;;;;10274018;28;20211;-71
2021/04/13 18:28:29;;;;;;;11.17;6.47;;;;;;;;;;10285879;28;20254;-70
2021/04/13 18:33:35;;;;;;;11.97;7.00;;;;;;;;;;10283234;28;20200;-71
2021/04/13 18:38:38;;;;;;;12.57;6.63;;;;;;;;;;10283494;28;20297;-67
2021/04/13 18:43:43;;;;;;;12.73;6.67;;;;;;;;;;10285253;28;20216;-71
2021/04/13 18:48:46;;;;;;;14.57;7.37;;;;;;;;;;10273665;28;20238;-69
2021/04/13 18:53:50;;;;;;;12.10;6.90;;;;;;;;;;10273935;28;20259;-69
2021/04/13 18:58:53;;;;;;;12.67;7.00;;;;;;;;;;10272188;28;20219;-73
2021/04/13 19:03:55;;;;;;;11.77;6.50;;;;;;;;;;10281205;28;20668;-72
2021/04/13 19:08:59;;;;;;;11.60;7.00;;;;;;;;;;10272021;28;20247;-70
2021/04/13 19:14:02;;;;;;;9.90;5.20;;;;;;;;;;10276652;28;20188;-71
2021/04/13 19:19:09;;;;;;;13.07;7.47;;;;;;;;;;10271082;28;20227;-71
2021/04/13 19:24:14;;;;;;;12.70;7.40;;;;;;;;;;10283181;28;20708;-71
2021/04/13 19:29:17;;;;;;;9.83;4.87;;;;;;;;;;10286056;28;20223;-69
2021/04/13 19:34:27;;;;;;;12.63;6.80;;;;;;;;;;10281961;28;20337;-70
2021/04/13 19:39:29;;;;;;;11.93;6.53;;;;;;;;;;10276713;28;20530;-69
2021/04/13 19:44:33;;;;;;;11.30;6.20;;;;;;;;;;10271503;28;20251;-70
2021/04/13 19:49:37;;;;;;;13.97;8.00;;;;;;;;;;10276055;28;20270;-70
2021/04/13 19:54:40;;;;;;;13.23;7.13;;;;;;;;;;10273735;28;20195;-71
2021/04/13 19:59:45;;;;;;;12.50;7.30;;;;;;;;;;10275802;28;20216;-71
2021/04/13 20:04:50;;;;;;;12.60;7.13;;;;;;;;;;10273943;28;20688;-69
2021/04/13 20:10:00;;;;;;;13.27;7.53;;;;;;;;;;10267477;28;20469;-69
2021/04/13 20:15:07;;;;;;;14.13;7.70;;;;;;;;;;10277367;28;20649;-69
2021/04/13 20:20:13;;;;;;;10.17;5.80;;;;;;;;;;10271409;28;20235;-69
2021/04/13 20:25:17;;;;;;;12.57;7.40;;;;;;;;;;10272675;28;20430;-71
2021/04/13 20:30:21;;;;;;;13.30;7.83;;;;;;;;;;10268718;28;20270;-69
2021/04/13 20:40:47;;;;;;;13.00;7.97;;;;;;;;;;10261150;28;20239;-71
2021/04/13 20:45:49;;;;;;;13.00;8.10;;;;;;;;;;10278998;28;20192;-69
2021/04/13 20:50:57;;;;;;;11.80;7.23;;;;;;;;;;10276492;28;20299;-69
2021/04/13 20:56:04;;;;;;;13.77;7.03;;;;;;;;;;10277837;28;20305;-72
2021/04/13 21:01:12;;;;;;;9.73;5.50;;;;;;;;;;10282397;28;20227;-70
2021/04/13 21:06:25;;;;;;;11.27;6.40;;;;;;;;;;10278726;28;20263;-71
2021/04/13 21:11:29;;;;;;;12.30;7.13;;;;;;;;;;10278765;28;20212;-69
2021/04/13 21:16:31;;;;;;;13.50;7.43;;;;;;;;;;10274824;28;20316;-70
2021/04/13 21:21:36;;;;;;;12.67;7.57;;;;;;;;;;10278723;28;20310;-70
2021/04/13 21:26:41;;;;;;;12.53;7.63;;;;;;;;;;10285868;28;20678;-72
2021/04/13 21:31:47;;;;;;;11.67;6.70;;;;;;;;;;10269637;28;20235;-69
2021/04/13 21:36:51;;;;;;;11.93;6.57;;;;;;;;;;10273498;28;20196;-70
2021/04/13 21:41:54;;;;;;;11.57;6.53;;;;;;;;;;10270410;28;20250;-72
2021/04/13 21:46:58;;;;;;;12.00;7.23;;;;;;;;;;10266771;28;20431;-73
2021/04/13 21:52:03;;;;;;;10.10;5.33;;;;;;;;;;10271561;28;20270;-72
2021/04/13 21:57:23;;;;;;;12.10;6.90;;;;;;;;;;10276183;28;20219;-72
2021/04/13 22:02:26;;;;;;;14.13;6.30;;;;;;;;;;10265336;28;20655;-71
2021/04/13 22:07:29;;;;;;;13.40;7.30;;;;;;;;;;10274537;28;20227;-72
2021/04/13 22:12:31;;;;;;;12.53;7.07;;;;;;;;;;10287607;28;20260;-72
2021/04/13 22:17:36;;;;;;;13.53;7.27;;;;;;;;;;10283772;28;20222;-72
2021/04/13 22:22:40;;;;;;;7.37;3.63;;;;;;;;;;10283075;28;20211;-73
2021/04/13 22:27:46;;;;;;;12.20;6.97;;;;;;;;;;10287469;28;20314;-69
2021/04/13 22:32:49;;;;;;;14.67;8.57;;;;;;;;;;10277052;28;20268;-71
2021/04/13 22:37:57;;;;;;;13.67;7.57;;;;;;;;;;10284937;28;20556;-71
2021/04/13 22:42:59;;;;;;;12.73;7.20;;;;;;;;;;10283526;28;20258;-71
2021/04/13 22:48:00;;;;;;;7.43;3.53;;;;;;;;;;10278015;28;20930;-71
2021/04/13 22:53:09;;;;;;;13.67;7.60;;;;;;;;;;10285352;28;20547;-72
2021/04/13 22:58:12;;;;;;;14.60;7.77;;;;;;;;;;10281158;28;20227;-72
2021/04/13 23:03:15;;;;;;;13.17;7.47;;;;;;;;;;10282522;28;20543;-72
2021/04/13 23:08:18;;;;;;;12.87;6.77;;;;;;;;;;10291823;28;20525;-72
2021/04/13 23:13:19;;;;;;;13.97;6.87;;;;;;;;;;10294040;28;20276;-72
2021/04/13 23:18:21;;;;;;;14.80;8.20;;;;;;;;;;10293918;28;20224;-72
2021/04/13 23:23:25;;;;;;;14.73;8.43;;;;;;;;;;10285904;28;20685;-72
2021/04/13 23:28:27;;;;;;;14.40;7.63;;;;;;;;;;10290344;28;20232;-71
2021/04/13 23:33:29;;;;;;;13.30;7.27;;;;;;;;;;10289706;28;20207;-72
2021/04/13 23:38:31;;;;;;;13.63;7.63;;;;;;;;;;10289608;28;20230;-72
2021/04/13 23:43:33;;;;;;;11.80;6.90;;;;;;;;;;10293631;28;20626;-70
2021/04/13 23:48:34;;;;;;;13.80;7.40;;;;;;;;;;10291323;28;21672;-70
2021/04/13 23:53:37;;;;;;;12.40;6.93;;;;;;;;;;10281072;28;20739;-71
2021/04/13 23:58:38;;;;;;;12.80;7.43;;;;;;;;;;10287110;28;20322;-71
